createdAt,value
2023-05-13T00:01:29.003Z,101918.91
2023-05-13T00:03:57.188Z,101948.22
2023-05-13T00:06:25.273Z,101859.81
2023-05-13T00:08:53.378Z,101887.50
2023-05-13T00:11:21.434Z,101947.53
2023-05-13T00:13:49.444Z,101958.03
2023-05-13T00:16:17.511Z,101929.72
2023-05-13T00:18:47.077Z,101957.16
2023-05-13T00:21:15.139Z,101964.31
2023-05-13T00:23:44.017Z,101959.78
2023-05-13T00:26:12.371Z,101921.56
2023-05-13T00:28:40.444Z,101974.13
2023-05-13T00:31:10.135Z,101961.91
2023-05-13T00:33:38.340Z,101953.97
2023-05-13T00:36:10.249Z,101966.06
2023-05-13T00:38:38.307Z,101958.94
2023-05-13T00:41:07.495Z,101959.97
2023-05-13T00:43:35.732Z,101963.41
2023-05-13T00:46:03.987Z,101955.34
2023-05-13T00:48:32.740Z,101960.16
2023-05-13T00:51:01.133Z,101884.03
2023-05-13T00:53:31.868Z,101963.41
2023-05-13T00:55:59.934Z,101967.06
2023-05-13T00:58:28.001Z,101968.75
2023-05-13T01:01:03.260Z,101963.41
2023-05-13T01:03:43.949Z,101906.13
2023-05-13T01:06:15.260Z,101969.72
2023-05-13T01:08:52.547Z,101981.28
2023-05-13T01:11:24.457Z,101977.78
2023-05-13T01:13:59.200Z,101983.97
2023-05-13T01:16:32.316Z,101994.69
2023-05-13T01:19:07.465Z,101994.78
2023-05-13T01:21:40.203Z,101914.91
2023-05-13T01:24:08.894Z,101997.47
2023-05-13T01:26:37.012Z,101989.44
2023-05-13T01:29:05.220Z,101992.13
2023-05-13T01:31:34.370Z,101998.34
2023-05-13T01:34:04.868Z,101997.47
2023-05-13T01:36:33.565Z,101992.13
2023-05-13T01:39:04.386Z,101997.47
2023-05-13T01:41:32.795Z,101999.44
2023-05-13T01:44:00.919Z,101931.19
2023-05-13T01:46:29.474Z,101917.28
2023-05-13T01:48:58.080Z,101985.91
2023-05-13T01:51:26.310Z,101994.06
2023-05-13T01:53:54.323Z,101968.09
2023-05-13T01:56:23.848Z,101910.50
2023-05-13T01:58:51.949Z,101988.72
2023-05-13T02:01:21.892Z,101978.19
2023-05-13T02:03:51.276Z,101872.03
2023-05-13T02:06:19.602Z,101985.91
2023-05-13T02:08:47.784Z,101990.41
2023-05-13T02:11:15.876Z,101969.81
2023-05-13T02:13:46.758Z,101978.81
2023-05-13T02:16:19.135Z,101978.00
2023-05-13T02:18:47.423Z,101978.00
2023-05-13T02:21:15.880Z,101983.34
2023-05-13T02:23:44.179Z,101977.13
2023-05-13T02:26:12.240Z,101973.06
2023-05-13T02:28:40.342Z,101978.00
2023-05-13T02:31:09.831Z,101983.34
2023-05-13T02:33:37.929Z,101980.13
2023-05-13T02:36:06.557Z,101978.00
2023-05-13T02:38:34.694Z,101977.22
2023-05-13T02:41:03.866Z,101871.59
2023-05-13T02:43:32.484Z,101975.31
2023-05-13T02:46:00.954Z,101891.53
2023-05-13T02:48:30.491Z,101963.59
2023-05-13T02:50:58.611Z,101964.59
2023-05-13T02:53:26.703Z,101956.53
2023-05-13T02:55:54.887Z,101937.75
2023-05-13T02:58:22.970Z,101961.91
2023-05-13T03:00:51.094Z,101957.47
2023-05-13T03:03:19.330Z,101959.22
2023-05-13T03:05:49.208Z,101955.00
2023-05-13T03:08:17.253Z,101965.53
2023-05-13T03:10:45.330Z,101954.81
2023-05-13T03:13:13.490Z,101958.47
2023-05-13T03:15:44.119Z,101954.81
2023-05-13T03:18:12.773Z,101879.75
2023-05-13T03:20:41.338Z,101956.53
2023-05-13T03:23:11.285Z,101961.91
2023-05-13T03:25:39.566Z,101967.25
2023-05-13T03:28:08.039Z,101893.47
2023-05-13T03:30:36.525Z,101955.69
2023-05-13T03:33:07.415Z,101960.16
2023-05-13T03:35:35.526Z,101846.97
2023-05-13T03:38:03.651Z,101955.78
2023-05-13T03:40:33.156Z,101960.16
2023-05-13T03:43:02.848Z,101952.00
2023-05-13T03:45:31.371Z,101925.22
2023-05-13T03:47:59.433Z,101898.63
2023-05-13T03:50:27.645Z,101948.00
2023-05-13T03:52:57.248Z,101956.78
2023-05-13T03:55:25.704Z,101944.63
2023-05-13T03:57:55.150Z,101946.25
2023-05-13T04:00:23.343Z,101954.75
2023-05-13T04:02:51.675Z,101953.78
2023-05-13T04:05:20.149Z,101881.72
2023-05-13T04:07:48.273Z,101951.84
2023-05-13T04:10:19.259Z,101945.63
2023-05-13T04:12:47.420Z,101950.16
2023-05-13T04:15:17.224Z,101955.50
2023-05-13T04:17:45.353Z,101953.56
2023-05-13T04:20:13.826Z,101951.84
2023-05-13T04:22:44.417Z,101938.34
2023-05-13T04:25:12.694Z,101949.94
2023-05-13T04:27:40.790Z,101946.28
2023-05-13T04:30:10.160Z,101942.19
2023-05-13T04:32:39.684Z,101947.00
2023-05-13T04:35:09.113Z,101940.25
2023-05-13T04:37:37.182Z,101808.63
2023-05-13T04:40:06.541Z,101955.28
2023-05-13T04:42:34.612Z,101947.94
2023-05-13T04:45:02.731Z,101874.59
2023-05-13T04:47:30.893Z,101954.84
2023-05-13T04:50:00.391Z,101963.63
2023-05-13T04:52:28.803Z,101838.41
2023-05-13T04:54:56.903Z,101967.06
2023-05-13T04:57:25.459Z,101951.63
2023-05-13T04:59:53.502Z,101967.06
2023-05-13T05:02:21.573Z,101929.09
2023-05-13T05:04:50.388Z,101968.03
2023-05-13T05:07:22.862Z,101968.97
2023-05-13T05:09:51.248Z,101871.41
2023-05-13T05:12:20.205Z,101977.25
2023-05-13T05:14:48.222Z,101978.22
2023-05-13T05:17:17.588Z,101914.59
2023-05-13T05:19:45.662Z,101985.50
2023-05-13T05:22:13.766Z,101979.53
2023-05-13T05:24:43.230Z,101987.47
2023-05-13T05:27:11.277Z,101987.47
2023-05-13T05:29:39.529Z,101982.94
2023-05-13T05:32:08.828Z,101987.47
2023-05-13T05:34:37.292Z,101987.47
2023-05-13T05:37:05.966Z,101985.72
2023-05-13T05:39:35.318Z,101985.72
2023-05-13T05:42:05.110Z,101979.63
2023-05-13T05:44:33.107Z,101985.72
2023-05-13T05:47:01.150Z,101976.94
2023-05-13T05:49:29.162Z,101976.94
2023-05-13T05:51:57.197Z,101989.59
2023-05-13T05:54:25.404Z,101976.94
2023-05-13T05:56:53.475Z,101988.75
2023-05-13T05:59:22.936Z,101979.09
2023-05-13T06:01:51.540Z,101984.22
2023-05-13T06:04:19.612Z,101925.63
2023-05-13T06:06:47.798Z,101974.78
2023-05-13T06:09:16.217Z,102000.31
2023-05-13T06:11:44.302Z,102002.03
2023-05-13T06:14:12.785Z,102005.69
2023-05-13T06:16:42.286Z,101998.63
2023-05-13T06:19:10.418Z,102007.38
2023-05-13T06:21:38.616Z,102007.38
2023-05-13T06:24:07.011Z,102011.06
2023-05-13T06:26:35.056Z,102014.72
2023-05-13T06:29:03.163Z,101925.22
2023-05-13T06:31:31.235Z,102008.47
2023-05-13T06:34:00.756Z,101930.59
2023-05-13T06:36:28.773Z,102008.47
2023-05-13T06:38:56.809Z,101891.13
2023-05-13T06:41:24.859Z,102004.97
2023-05-13T06:43:53.031Z,102012.03
2023-05-13T06:46:21.181Z,102006.66
2023-05-13T06:48:52.348Z,102004.97
2023-05-13T06:51:22.957Z,102020.06
2023-05-13T06:53:50.966Z,102009.34
2023-05-13T06:56:25.466Z,102006.66
2023-05-13T06:58:53.807Z,102003.97
2023-05-13T07:01:22.209Z,102022.88
2023-05-13T07:03:50.567Z,102018.38
2023-05-13T07:06:18.732Z,102018.38
2023-05-13T07:08:48.230Z,102020.06
2023-05-13T07:11:16.251Z,101910.84
2023-05-13T07:13:44.566Z,102023.47
2023-05-13T07:16:12.660Z,102025.22
2023-05-13T07:18:40.777Z,101987.03
2023-05-13T07:21:08.914Z,102012.75
2023-05-13T07:23:37.352Z,102019.75
2023-05-13T07:26:06.879Z,102017.19
2023-05-13T07:28:34.967Z,102021.56
2023-05-13T07:31:03.292Z,101961.50
2023-05-13T07:33:31.480Z,102014.50
2023-05-13T07:35:59.544Z,102007.63
2023-05-13T07:38:27.589Z,102003.97
2023-05-13T07:40:56.075Z,102009.25
2023-05-13T07:43:25.747Z,102016.41
2023-05-13T07:45:53.964Z,102007.09
2023-05-13T07:48:21.986Z,102013.72
2023-05-13T07:50:50.084Z,102014.59
2023-05-13T07:53:19.829Z,101998.63
2023-05-13T07:55:48.092Z,102011.06
2023-05-13T07:58:16.189Z,101932.50
2023-05-13T08:00:45.804Z,102003.97
2023-05-13T08:03:14.135Z,102003.13
2023-05-13T08:05:42.287Z,102002.28
2023-05-13T08:08:10.350Z,102004.97
2023-05-13T08:10:38.373Z,102009.34
2023-05-13T08:13:06.679Z,102005.91
2023-05-13T08:15:34.756Z,102011.25
2023-05-13T08:18:04.332Z,102005.91
2023-05-13T08:20:32.435Z,102000.53
2023-05-13T08:23:02.102Z,102004.41
2023-05-13T08:25:30.347Z,102004.19
2023-05-13T08:27:59.027Z,101993.47
2023-05-13T08:30:27.148Z,101995.16
2023-05-13T08:32:55.241Z,101978.25
2023-05-13T08:35:25.102Z,101998.84
2023-05-13T08:37:53.199Z,102004.19
2023-05-13T08:40:22.010Z,101992.81
2023-05-13T08:42:53.946Z,102011.25
2023-05-13T08:45:24.068Z,101940.66
2023-05-13T08:47:53.837Z,101924.16
2023-05-13T08:50:23.422Z,101834.53
2023-05-13T08:52:54.154Z,102011.25
2023-05-13T08:55:24.356Z,102016.63
2023-05-13T08:57:53.277Z,101972.13
2023-05-13T09:00:21.916Z,102000.53
2023-05-13T09:02:51.271Z,102005.91
2023-05-13T09:05:20.429Z,102004.19
2023-05-13T09:07:48.592Z,102009.56
2023-05-13T09:10:19.512Z,102009.56
2023-05-13T09:12:48.848Z,102013.22
2023-05-13T09:15:19.251Z,101975.88
2023-05-13T09:17:50.208Z,102006.13
2023-05-13T09:20:19.604Z,102000.75
2023-05-13T09:22:48.545Z,101993.69
2023-05-13T09:25:19.175Z,101997.22
2023-05-13T09:27:49.534Z,101996.38
2023-05-13T09:30:17.656Z,101996.38
2023-05-13T09:32:45.801Z,101982.09
2023-05-13T09:35:17.337Z,101991.97
2023-05-13T09:37:49.511Z,101980.38
2023-05-13T09:40:19.229Z,101999.03
2023-05-13T09:42:47.990Z,101953.47
2023-05-13T09:45:17.653Z,101993.91
2023-05-13T09:47:45.877Z,101993.69
2023-05-13T09:50:14.151Z,101999.03
2023-05-13T09:52:42.422Z,101994.56
2023-05-13T09:55:11.161Z,101986.63
2023-05-13T09:57:41.172Z,101988.31
2023-05-13T10:00:17.978Z,101992.72
2023-05-13T10:02:53.549Z,101990.25
2023-05-13T10:05:22.647Z,101932.75
2023-05-13T10:07:51.786Z,101995.38
2023-05-13T10:10:21.450Z,101844.28
2023-05-13T10:12:52.806Z,101985.53
2023-05-13T10:15:21.341Z,101980.16
2023-05-13T10:17:49.843Z,101979.50
2023-05-13T10:20:18.353Z,101979.28
2023-05-13T10:22:47.059Z,101983.72
2023-05-13T10:25:15.147Z,101979.28
2023-05-13T10:27:44.604Z,101975.66
2023-05-13T10:30:16.259Z,101981.03
2023-05-13T10:32:44.507Z,101981.88
2023-05-13T10:35:15.696Z,101826.59
2023-05-13T10:38:03.162Z,101977.59
2023-05-13T10:40:51.976Z,101975.66
2023-05-13T10:43:22.133Z,101972.13
2023-05-13T10:45:53.525Z,101968.56
2023-05-13T10:48:21.692Z,101967.72
2023-05-13T10:50:54.556Z,101963.22
2023-05-13T10:53:25.493Z,101874.41
2023-05-13T10:55:58.140Z,101960.63
2023-05-13T10:58:33.395Z,101963.22
2023-05-13T11:01:17.281Z,101942.41
2023-05-13T11:03:56.401Z,101961.50
2023-05-13T11:06:27.336Z,101879.34
2023-05-13T11:08:56.315Z,101958.28
2023-05-13T11:11:34.138Z,101898.84
2023-05-13T11:14:09.922Z,101966.88
2023-05-13T11:16:39.610Z,101962.47
2023-05-13T11:19:20.241Z,101886.44
2023-05-13T11:21:51.283Z,101966.88
2023-05-13T11:24:20.549Z,101964.19
2023-05-13T11:26:50.824Z,101880.88
2023-05-13T11:29:30.669Z,101956.13
2023-05-13T11:32:01.257Z,101863.69
2023-05-13T11:34:30.247Z,101960.53
2023-05-13T11:37:07.789Z,101956.34
2023-05-13T11:39:36.342Z,101957.00
2023-05-13T11:42:08.730Z,101953.47
2023-05-13T11:44:37.305Z,101961.50
2023-05-13T11:47:08.254Z,101949.91
2023-05-13T11:49:41.272Z,101937.03
2023-05-13T11:52:11.455Z,101956.13
2023-05-13T11:54:49.182Z,101947.56
2023-05-13T11:57:21.374Z,101953.88
2023-05-13T11:59:53.897Z,101973.94
2023-05-13T12:02:27.280Z,101968.56
2023-05-13T12:04:55.701Z,101796.28
2023-05-13T12:07:24.916Z,101963.22
2023-05-13T12:09:54.572Z,101963.22
2023-05-13T12:12:23.192Z,101956.13
2023-05-13T12:14:53.081Z,101882.56
2023-05-13T12:17:25.066Z,101794.69
2023-05-13T12:20:14.158Z,101955.16
2023-05-13T12:22:57.690Z,101951.75
2023-05-13T12:25:43.085Z,101956.13
2023-05-13T12:28:13.419Z,101952.47
2023-05-13T12:30:44.215Z,101952.47
2023-05-13T12:33:17.879Z,101943.72
2023-05-13T12:35:48.419Z,101945.41
2023-05-13T12:38:18.586Z,101831.97
2023-05-13T12:40:47.977Z,101941.75
2023-05-13T12:43:18.354Z,101942.72
2023-05-13T12:45:47.837Z,101940.91
2023-05-13T12:48:17.308Z,101836.38
2023-05-13T12:50:45.360Z,101934.69
2023-05-13T12:53:13.586Z,101926.31
2023-05-13T12:55:41.657Z,101908.31
2023-05-13T12:58:12.362Z,101925.47
2023-05-13T13:00:40.467Z,101932.00
2023-05-13T13:03:08.929Z,101852.53
2023-05-13T13:05:38.524Z,101859.63
2023-05-13T13:08:07.003Z,101937.25
2023-05-13T13:10:35.105Z,101940.03
2023-05-13T13:13:03.131Z,101792.78
2023-05-13T13:15:31.697Z,101942.94
2023-05-13T13:17:59.821Z,101945.41
2023-05-13T13:20:27.958Z,101948.09
2023-05-13T13:22:57.552Z,101902.72
2023-05-13T13:25:25.562Z,101953.47
2023-05-13T13:27:53.674Z,101957.84
2023-05-13T13:30:21.745Z,101960.63
2023-05-13T13:32:49.895Z,101952.47
2023-05-13T13:35:18.191Z,101957.84
2023-05-13T13:37:46.281Z,101908.09
2023-05-13T13:40:16.659Z,101947.13
2023-05-13T13:42:45.287Z,101951.53
2023-05-13T13:45:13.958Z,101952.47
2023-05-13T13:47:42.264Z,101872.81
2023-05-13T13:50:11.626Z,101943.50
2023-05-13T13:52:39.709Z,101936.38
2023-05-13T13:55:08.839Z,101901.47
2023-05-13T13:57:38.334Z,101855.97
2023-05-13T14:00:07.965Z,101932.22
2023-05-13T14:02:36.337Z,101931.25
2023-05-13T14:05:04.581Z,101938.34
2023-05-13T14:07:32.655Z,101854.28
2023-05-13T14:10:01.611Z,101934.69
2023-05-13T14:12:29.829Z,101936.38
2023-05-13T14:15:00.611Z,101938.13
2023-05-13T14:17:28.833Z,101867.34
2023-05-13T14:19:57.075Z,101922.97
2023-05-13T14:22:25.518Z,101921.28
2023-05-13T14:24:54.271Z,101922.03
2023-05-13T14:27:24.701Z,101922.03
2023-05-13T14:29:53.103Z,101913.56
2023-05-13T14:32:22.576Z,101841.63
2023-05-13T14:34:50.919Z,101913.22
2023-05-13T14:37:19.079Z,101831.31
2023-05-13T14:39:49.260Z,101783.13
2023-05-13T14:42:18.484Z,101907.88
2023-05-13T14:44:46.745Z,101916.78
2023-05-13T14:47:14.833Z,101724.22
2023-05-13T14:49:44.261Z,101906.91
2023-05-13T14:52:12.308Z,101818.47
2023-05-13T14:54:40.346Z,101898.84
2023-05-13T14:57:08.758Z,101742.19
2023-05-13T14:59:37.072Z,101819.56
2023-05-13T15:02:05.534Z,101902.72
2023-05-13T15:04:33.601Z,101819.13
2023-05-13T15:07:05.635Z,101868.19
2023-05-13T15:09:34.036Z,101898.84
2023-05-13T15:12:04.011Z,101902.50
2023-05-13T15:14:32.073Z,101854.47
2023-05-13T15:17:00.439Z,101898.84
2023-05-13T15:19:30.991Z,101900.59
2023-05-13T15:21:59.112Z,101870.34
2023-05-13T15:24:28.586Z,101896.16
2023-05-13T15:26:56.618Z,101893.47
2023-05-13T15:29:24.665Z,101898.84
2023-05-13T15:31:52.777Z,101717.91
2023-05-13T15:34:20.871Z,101897.13
2023-05-13T15:36:49.115Z,101894.34
2023-05-13T15:39:17.691Z,101787.41
2023-05-13T15:41:47.277Z,101889.09
2023-05-13T15:44:15.394Z,101885.53
2023-05-13T15:46:43.633Z,101717.69
2023-05-13T15:49:11.830Z,101810.75
2023-05-13T15:51:39.928Z,101886.41
2023-05-13T15:54:08.212Z,101879.25
2023-05-13T15:56:36.265Z,101872.03
2023-05-13T15:59:05.872Z,101872.03
2023-05-13T16:01:34.022Z,101872.91
2023-05-13T16:04:02.084Z,101872.03
2023-05-13T16:06:30.198Z,101865.41
2023-05-13T16:08:58.225Z,101865.41
2023-05-13T16:11:26.765Z,101878.25
2023-05-13T16:13:54.819Z,101872.03
2023-05-13T16:16:24.802Z,101855.53
2023-05-13T16:18:53.036Z,101865.84
2023-05-13T16:21:24.527Z,101708.72
2023-05-13T16:23:52.633Z,101863.25
2023-05-13T16:26:21.529Z,101850.41
2023-05-13T16:28:49.619Z,101861.31
2023-05-13T16:31:17.644Z,101697.47
2023-05-13T16:33:47.075Z,101856.91
2023-05-13T16:36:15.179Z,101861.31
2023-05-13T16:38:43.315Z,101830.22
2023-05-13T16:41:12.164Z,101730.00
2023-05-13T16:43:40.274Z,101867.53
2023-05-13T16:46:08.351Z,101855.94
2023-05-13T16:48:36.920Z,101862.16
2023-05-13T16:51:06.689Z,101861.31
2023-05-13T16:53:35.064Z,101853.25
2023-05-13T16:56:03.276Z,101856.81
2023-05-13T16:58:31.309Z,101843.09
2023-05-13T17:00:59.767Z,101850.56
2023-05-13T17:03:28.378Z,101857.69
2023-05-13T17:05:56.550Z,101845.88
2023-05-13T17:08:26.009Z,101850.56
2023-05-13T17:10:54.328Z,101851.44
2023-05-13T17:13:22.891Z,101845.22
2023-05-13T17:15:51.219Z,101855.94
2023-05-13T17:18:19.220Z,101855.94
2023-05-13T17:20:47.294Z,101754.81
2023-05-13T17:23:17.343Z,101839.84
2023-05-13T17:25:48.586Z,101713.94
2023-05-13T17:28:16.671Z,101836.78
2023-05-13T17:30:44.806Z,101829.56
2023-05-13T17:33:13.014Z,101816.81
2023-05-13T17:35:41.236Z,101834.50
2023-05-13T17:38:09.323Z,101834.50
2023-05-13T17:40:37.604Z,101836.22
2023-05-13T17:43:07.158Z,101836.22
2023-05-13T17:45:35.936Z,101836.44
2023-05-13T17:48:04.716Z,101745.16
2023-05-13T17:50:33.369Z,101800.03
2023-05-13T17:53:01.783Z,101859.38
2023-05-13T17:55:30.001Z,101817.59
2023-05-13T17:57:59.878Z,101764.66
2023-05-13T18:00:29.603Z,101838.91
2023-05-13T18:02:57.666Z,101826.06
2023-05-13T18:05:25.854Z,101835.34
2023-05-13T18:07:54.148Z,101836.22
2023-05-13T18:10:22.491Z,101844.25
2023-05-13T18:12:51.825Z,101750.72
2023-05-13T18:15:20.129Z,101844.16
2023-05-13T18:17:49.890Z,101839.63
2023-05-13T18:20:18.061Z,101830.84
2023-05-13T18:22:46.261Z,101822.28
2023-05-13T18:25:14.410Z,101840.59
2023-05-13T18:27:42.504Z,101840.59
2023-05-13T18:30:17.494Z,101845.84
2023-05-13T18:32:45.861Z,101841.59
2023-05-13T18:35:16.380Z,101839.63
2023-05-13T18:37:44.507Z,101841.59
2023-05-13T18:40:13.687Z,101764.44
2023-05-13T18:42:41.747Z,101835.25
2023-05-13T18:45:11.154Z,101845.00
2023-05-13T18:47:40.292Z,101843.50
2023-05-13T18:50:08.931Z,101805.81
2023-05-13T18:52:40.271Z,101806.31
2023-05-13T18:55:12.563Z,101843.06
2023-05-13T18:57:40.779Z,101778.34
2023-05-13T19:00:09.856Z,101759.53
2023-05-13T19:02:38.190Z,101837.69
2023-05-13T19:05:07.392Z,101841.38
2023-05-13T19:07:35.489Z,101837.50
2023-05-13T19:10:05.440Z,101848.44
2023-05-13T19:12:33.574Z,101853.78
2023-05-13T19:15:01.766Z,101851.22
2023-05-13T19:17:29.946Z,101825.75
2023-05-13T19:20:00.633Z,101858.28
2023-05-13T19:22:28.762Z,101859.16
2023-05-13T19:24:56.828Z,101856.59
2023-05-13T19:27:26.343Z,101853.78
2023-05-13T19:29:54.389Z,101853.78
2023-05-13T19:32:22.506Z,101853.16
2023-05-13T19:34:50.531Z,101848.44
2023-05-13T19:37:18.679Z,101850.13
2023-05-13T19:39:46.798Z,101853.78
2023-05-13T19:42:16.288Z,101853.78
2023-05-13T19:44:46.224Z,101681.19
2023-05-13T19:47:14.756Z,101855.50
2023-05-13T19:49:43.565Z,101857.47
2023-05-13T19:52:16.952Z,101676.69
2023-05-13T19:54:45.289Z,101860.84
2023-05-13T19:57:13.428Z,101864.53
2023-05-13T19:59:41.876Z,101860.03
2023-05-13T20:02:11.573Z,101853.78
2023-05-13T20:04:39.721Z,101865.38
2023-05-13T20:07:09.262Z,101855.50
2023-05-13T20:09:37.591Z,101814.06
2023-05-13T20:12:06.625Z,101867.94
2023-05-13T20:14:44.594Z,101816.94
2023-05-13T20:17:16.958Z,101859.88
2023-05-13T20:19:45.350Z,101855.00
2023-05-13T20:22:13.462Z,101826.38
2023-05-13T20:24:41.650Z,101772.38
2023-05-13T20:27:09.903Z,101855.72
2023-05-13T20:29:38.849Z,101862.56
2023-05-13T20:32:08.048Z,101855.50
2023-05-13T20:34:37.837Z,101863.53
2023-05-13T20:37:06.906Z,101857.19
2023-05-13T20:39:35.071Z,101858.19
2023-05-13T20:42:03.250Z,101866.22
2023-05-13T20:44:31.453Z,101855.50
2023-05-13T20:46:59.924Z,101853.78
2023-05-13T20:49:28.074Z,101847.16
2023-05-13T20:52:03.545Z,101854.66
2023-05-13T20:54:31.717Z,101852.09
2023-05-13T20:57:01.204Z,101852.09
2023-05-13T20:59:30.394Z,101851.22
2023-05-13T21:01:59.065Z,101852.09
2023-05-13T21:04:27.260Z,101853.78
2023-05-13T21:06:55.360Z,101840.94
2023-05-13T21:09:24.793Z,101852.31
2023-05-13T21:11:52.780Z,101663.63
2023-05-13T21:14:20.935Z,101848.44
2023-05-13T21:16:48.956Z,101831.97
2023-05-13T21:19:23.007Z,101765.53
2023-05-13T21:21:51.443Z,101824.66
2023-05-13T21:24:20.512Z,101845.84
2023-05-13T21:26:50.137Z,101847.66
2023-05-13T21:29:19.023Z,101833.00
2023-05-13T21:31:47.996Z,101661.91
2023-05-13T21:34:16.205Z,101850.34
2023-05-13T21:36:44.543Z,101849.41
2023-05-13T21:39:12.572Z,101838.16
2023-05-13T21:41:41.354Z,101847.66
2023-05-13T21:44:10.969Z,101850.34
2023-05-13T21:46:39.362Z,101825.75
2023-05-13T21:49:07.625Z,101853.78
2023-05-13T21:51:35.779Z,101852.09
2023-05-13T21:54:03.817Z,101767.47
2023-05-13T21:56:31.916Z,101850.34
2023-05-13T21:58:59.998Z,101840.28
2023-05-13T22:01:29.898Z,101859.38
2023-05-13T22:03:58.082Z,101857.69
2023-05-13T22:06:27.170Z,101850.78
2023-05-13T22:08:55.365Z,101859.38
2023-05-13T22:11:23.448Z,101859.38
2023-05-13T22:13:51.906Z,101763.41
2023-05-13T22:16:20.073Z,101777.31
2023-05-13T22:18:49.991Z,101865.63
2023-05-13T22:21:18.202Z,101854.00
2023-05-13T22:23:46.473Z,101848.66
2023-05-13T22:26:14.566Z,101764.22
2023-05-13T22:28:42.838Z,101845.97
2023-05-13T22:31:11.035Z,101768.31
2023-05-13T22:33:39.136Z,101854.00
2023-05-13T22:36:08.943Z,101845.00
2023-05-13T22:38:37.337Z,101834.09
2023-05-13T22:41:05.557Z,101845.00
2023-05-13T22:43:34.325Z,101854.00
2023-05-13T22:46:02.495Z,101849.53
2023-05-13T22:48:30.824Z,101836.66
2023-05-13T22:50:59.973Z,101850.34
2023-05-13T22:53:29.446Z,101782.00
2023-05-13T22:55:57.556Z,101849.31
2023-05-13T22:58:25.618Z,101769.59
2023-05-13T23:00:53.856Z,101839.25
2023-05-13T23:03:21.995Z,101847.78
2023-05-13T23:05:50.002Z,101771.44
2023-05-13T23:08:18.109Z,101846.94
2023-05-13T23:10:47.751Z,101849.53
2023-05-13T23:13:15.923Z,101784.19
2023-05-13T23:15:44.487Z,101847.66
2023-05-13T23:18:12.601Z,101785.44
2023-05-13T23:20:40.619Z,101832.19
2023-05-13T23:23:08.808Z,101834.72
2023-05-13T23:25:36.999Z,101848.66
2023-05-13T23:28:06.443Z,101845.00
2023-05-13T23:30:34.555Z,101845.97
2023-05-13T23:33:02.717Z,101842.63
2023-05-13T23:35:31.097Z,101836.44
2023-05-13T23:37:59.466Z,101710.28
2023-05-13T23:40:27.755Z,101837.94
2023-05-13T23:42:56.141Z,101770.03
2023-05-13T23:45:26.821Z,101842.31
2023-05-13T23:47:54.972Z,101822.28
2023-05-13T23:50:23.284Z,101839.63
2023-05-13T23:52:51.685Z,101837.94
2023-05-13T23:55:20.687Z,101834.25
2023-05-13T23:57:49.803Z,101811.34
